createdAt,value
2022-12-03T00:01:07.782Z,98799.00
2022-12-03T00:03:38.790Z,98797.00
2022-12-03T00:06:09.744Z,98787.00
2022-12-03T00:08:40.774Z,98793.00
2022-12-03T00:11:11.643Z,98797.00
2022-12-03T00:13:42.492Z,98797.00
2022-12-03T00:16:13.474Z,98803.00
2022-12-03T00:18:44.423Z,98801.00
2022-12-03T00:21:15.310Z,98803.00
2022-12-03T00:23:46.195Z,98795.00
2022-12-03T00:26:17.024Z,98799.00
2022-12-03T00:28:47.921Z,98797.00
2022-12-03T00:31:21.426Z,98809.00
2022-12-03T00:33:53.101Z,98802.00
2022-12-03T00:36:23.932Z,98827.00
2022-12-03T00:38:54.880Z,98804.00
2022-12-03T00:41:25.753Z,98805.00
2022-12-03T00:43:57.759Z,98806.00
2022-12-03T00:46:28.687Z,98802.00
2022-12-03T00:48:59.681Z,98807.00
2022-12-03T00:51:30.573Z,98806.00
2022-12-03T00:54:01.619Z,98812.00
2022-12-03T00:56:32.494Z,98810.00
2022-12-03T00:59:03.482Z,98813.00
2022-12-03T01:01:34.397Z,98804.00
2022-12-03T01:04:05.565Z,98803.00
2022-12-03T01:06:36.978Z,98805.00
2022-12-03T01:09:07.983Z,98811.00
2022-12-03T01:11:38.923Z,98810.00
2022-12-03T01:14:16.746Z,98808.00
2022-12-03T01:16:48.309Z,98809.00
2022-12-03T01:19:20.892Z,98811.00
2022-12-03T01:21:52.437Z,98811.00
2022-12-03T01:24:23.417Z,98837.00
2022-12-03T01:26:55.876Z,98809.00
2022-12-03T01:29:27.174Z,98806.00
2022-12-03T01:32:19.759Z,98803.00
2022-12-03T01:34:54.411Z,98807.00
2022-12-03T01:37:27.356Z,98808.00
2022-12-03T01:40:01.292Z,98817.00
2022-12-03T01:42:36.522Z,98811.00
2022-12-03T01:45:11.957Z,98810.00
2022-12-03T01:47:42.937Z,98808.00
2022-12-03T01:50:28.664Z,98799.00
2022-12-03T01:53:02.217Z,98799.00
2022-12-03T01:55:33.698Z,98806.00
2022-12-03T01:58:05.000Z,98814.00
2022-12-03T02:00:36.198Z,98817.00
2022-12-03T02:03:19.298Z,98812.00
2022-12-03T02:05:50.582Z,98813.00
2022-12-03T02:08:35.407Z,98825.00
2022-12-03T02:11:35.892Z,98818.00
2022-12-03T02:14:11.765Z,98811.00
2022-12-03T02:16:43.986Z,98813.00
2022-12-03T02:19:31.830Z,98818.00
2022-12-03T02:22:36.840Z,98803.00
2022-12-03T02:25:32.021Z,98806.00
2022-12-03T02:28:06.511Z,98814.00
2022-12-03T02:30:37.620Z,98826.00
2022-12-03T02:33:08.565Z,98804.00
2022-12-03T02:35:39.972Z,98816.00
2022-12-03T02:38:27.139Z,98806.00
2022-12-03T02:41:03.845Z,98806.00
2022-12-03T02:43:35.155Z,98837.00
2022-12-03T02:46:08.685Z,98812.00
2022-12-03T02:48:41.917Z,98807.00
2022-12-03T02:51:12.880Z,98814.00
2022-12-03T02:53:47.607Z,98809.00
2022-12-03T02:56:23.791Z,98817.00
2022-12-03T02:58:58.889Z,98819.00
2022-12-03T03:01:44.988Z,98816.00
2022-12-03T03:04:16.094Z,98812.00
2022-12-03T03:06:46.987Z,98816.00
2022-12-03T03:09:18.577Z,98813.00
2022-12-03T03:11:49.473Z,98809.00
2022-12-03T03:14:20.411Z,98813.00
2022-12-03T03:16:56.205Z,98813.00
2022-12-03T03:19:27.691Z,98805.00
2022-12-03T03:21:58.704Z,98806.00
2022-12-03T03:24:29.770Z,98815.00
2022-12-03T03:27:00.655Z,98813.00
2022-12-03T03:29:33.075Z,98807.00
2022-12-03T03:32:07.833Z,98807.00
2022-12-03T03:34:38.844Z,98804.00
2022-12-03T03:37:09.792Z,98802.00
2022-12-03T03:39:40.754Z,98803.00
2022-12-03T03:42:11.900Z,98813.00
2022-12-03T03:44:42.924Z,98788.00
2022-12-03T03:47:14.664Z,98804.00
2022-12-03T03:49:47.926Z,98807.00
2022-12-03T03:52:20.009Z,98799.00
2022-12-03T03:54:51.244Z,98797.00
2022-12-03T03:57:22.356Z,98794.00
2022-12-03T03:59:53.245Z,98798.00
2022-12-03T04:02:26.918Z,98796.00
2022-12-03T04:04:57.886Z,98788.00
2022-12-03T04:07:28.916Z,98794.00
2022-12-03T04:09:59.869Z,98786.00
2022-12-03T04:12:49.144Z,98788.00
2022-12-03T04:15:20.002Z,98783.00
2022-12-03T04:18:10.336Z,98785.00
2022-12-03T04:20:41.356Z,98805.00
2022-12-03T04:23:12.265Z,98784.00
2022-12-03T04:26:01.472Z,98777.00
2022-12-03T04:28:50.638Z,98773.00
2022-12-03T04:31:40.372Z,98778.00
2022-12-03T04:34:30.254Z,98782.00
2022-12-03T04:37:01.161Z,98784.00
2022-12-03T04:39:32.108Z,98783.00
2022-12-03T04:42:03.928Z,98780.00
2022-12-03T04:44:38.129Z,98774.00
2022-12-03T04:47:16.041Z,98776.00
2022-12-03T04:49:50.300Z,98780.00
2022-12-03T04:52:21.549Z,98781.00
2022-12-03T04:54:52.788Z,98786.00
2022-12-03T04:57:23.918Z,98778.00
2022-12-03T04:59:54.797Z,98776.00
2022-12-03T05:02:25.745Z,98782.00
2022-12-03T05:04:56.703Z,98778.00
2022-12-03T05:07:27.771Z,98777.00
2022-12-03T05:09:58.683Z,98772.00
2022-12-03T05:12:29.590Z,98778.00
2022-12-03T05:15:00.686Z,98770.00
2022-12-03T05:17:31.742Z,98766.00
2022-12-03T05:20:21.373Z,98770.00
2022-12-03T05:22:52.301Z,98770.00
2022-12-03T05:25:23.169Z,98777.00
2022-12-03T05:27:54.268Z,98771.00
2022-12-03T05:30:25.500Z,98761.00
2022-12-03T05:32:56.433Z,98763.00
2022-12-03T05:35:27.684Z,98758.00
2022-12-03T05:37:58.636Z,98763.00
2022-12-03T05:40:29.567Z,98758.00
2022-12-03T05:43:03.969Z,98755.00
2022-12-03T05:45:40.887Z,98747.00
2022-12-03T05:48:14.646Z,98750.00
2022-12-03T05:50:46.868Z,98750.00
2022-12-03T05:53:18.005Z,98753.00
2022-12-03T05:55:48.877Z,98760.00
2022-12-03T05:58:19.759Z,98755.00
2022-12-03T06:00:50.624Z,98753.00
2022-12-03T06:03:21.669Z,98750.00
2022-12-03T06:05:52.708Z,98757.00
2022-12-03T06:08:23.598Z,98758.00
2022-12-03T06:10:54.509Z,98769.00
2022-12-03T06:13:25.456Z,98759.00
2022-12-03T06:15:56.380Z,98752.00
2022-12-03T06:18:27.313Z,98749.00
2022-12-03T06:20:58.189Z,98755.00
2022-12-03T06:23:29.174Z,98760.00
2022-12-03T06:26:00.075Z,98770.00
2022-12-03T06:28:30.947Z,98762.00
2022-12-03T06:31:02.243Z,98759.00
2022-12-03T06:33:33.211Z,98760.00
2022-12-03T06:36:04.662Z,98762.00
2022-12-03T06:38:35.570Z,98772.00
2022-12-03T06:41:06.421Z,98769.00
2022-12-03T06:43:37.297Z,98772.00
2022-12-03T06:46:08.206Z,98782.00
2022-12-03T06:48:39.102Z,98785.00
2022-12-03T06:51:09.985Z,98795.00
2022-12-03T06:53:40.877Z,98795.00
2022-12-03T06:56:11.754Z,98794.00
2022-12-03T06:58:42.701Z,98787.00
2022-12-03T07:01:13.712Z,98778.00
2022-12-03T07:03:44.610Z,98803.00
2022-12-03T07:06:15.694Z,98791.00
2022-12-03T07:08:46.578Z,98776.00
2022-12-03T07:11:33.048Z,98777.00
2022-12-03T07:14:06.304Z,98772.00
2022-12-03T07:16:38.195Z,98760.00
2022-12-03T07:19:10.328Z,98769.00
2022-12-03T07:21:41.685Z,98766.00
2022-12-03T07:24:12.604Z,98773.00
2022-12-03T07:26:43.541Z,98774.00
2022-12-03T07:29:14.490Z,98771.00
2022-12-03T07:31:45.449Z,98771.00
2022-12-03T07:34:16.566Z,98776.00
2022-12-03T07:36:47.662Z,98775.00
2022-12-03T07:39:18.662Z,98776.00
2022-12-03T07:41:49.890Z,98769.00
2022-12-03T07:44:20.850Z,98762.00
2022-12-03T07:46:52.022Z,98774.00
2022-12-03T07:49:23.022Z,98766.00
2022-12-03T07:51:54.456Z,98767.00
2022-12-03T07:54:26.111Z,98758.00
2022-12-03T07:57:01.439Z,98759.00
2022-12-03T07:59:35.186Z,98761.00
2022-12-03T08:02:06.696Z,98768.00
2022-12-03T08:04:37.627Z,98763.00
2022-12-03T08:07:08.486Z,98766.00
2022-12-03T08:09:41.530Z,98757.00
2022-12-03T08:12:19.489Z,98769.00
2022-12-03T08:14:51.275Z,98764.00
2022-12-03T08:17:22.960Z,98777.00
2022-12-03T08:19:53.893Z,98771.00
2022-12-03T08:22:24.827Z,98773.00
2022-12-03T08:24:56.309Z,98772.00
2022-12-03T08:27:27.328Z,98767.00
2022-12-03T08:30:03.967Z,98773.00
2022-12-03T08:32:34.923Z,98775.00
2022-12-03T08:35:20.148Z,98772.00
2022-12-03T08:38:05.895Z,98770.00
2022-12-03T08:40:42.692Z,98777.00
2022-12-03T08:43:41.971Z,98775.00
2022-12-03T08:46:19.504Z,98773.00
2022-12-03T08:48:50.502Z,98770.00
2022-12-03T08:51:27.142Z,98762.00
2022-12-03T08:54:13.561Z,98791.00
2022-12-03T08:56:44.898Z,98764.00
2022-12-03T08:59:29.443Z,98795.00
2022-12-03T09:02:00.424Z,98762.00
2022-12-03T09:04:46.315Z,98763.00
2022-12-03T09:07:17.165Z,98763.00
2022-12-03T09:09:48.256Z,98769.00
2022-12-03T09:12:19.136Z,98774.00
2022-12-03T09:14:50.144Z,98775.00
2022-12-03T09:17:20.982Z,98791.00
2022-12-03T09:19:51.947Z,98784.00
2022-12-03T09:22:22.988Z,98772.00
2022-12-03T09:24:54.191Z,98780.00
2022-12-03T09:27:25.395Z,98781.00
2022-12-03T09:29:56.256Z,98778.00
2022-12-03T09:32:27.233Z,98775.00
2022-12-03T09:34:58.195Z,98768.00
2022-12-03T09:37:29.088Z,98778.00
2022-12-03T09:40:00.031Z,98762.00
2022-12-03T09:42:30.999Z,98759.00
2022-12-03T09:45:04.138Z,98756.00
2022-12-03T09:47:35.068Z,98753.00
2022-12-03T09:50:06.940Z,98746.00
2022-12-03T09:52:37.879Z,98753.00
2022-12-03T09:55:19.724Z,98750.00
2022-12-03T09:57:56.371Z,98745.00
2022-12-03T10:00:30.843Z,98744.00
2022-12-03T10:03:05.022Z,98744.00
2022-12-03T10:05:36.057Z,98760.00
2022-12-03T10:08:20.687Z,98753.00
2022-12-03T10:10:56.494Z,98758.00
2022-12-03T10:13:30.580Z,98756.00
2022-12-03T10:16:01.610Z,98761.00
2022-12-03T10:18:41.290Z,98754.00
2022-12-03T10:21:29.396Z,98767.00
2022-12-03T10:24:29.034Z,98750.00
2022-12-03T10:27:02.792Z,98737.00
2022-12-03T10:29:45.723Z,98746.00
2022-12-03T10:32:16.651Z,98741.00
2022-12-03T10:34:47.571Z,98740.00
2022-12-03T10:37:21.540Z,98760.00
2022-12-03T10:40:02.466Z,98749.00
2022-12-03T10:42:37.040Z,98740.00
2022-12-03T10:45:23.681Z,98741.00
2022-12-03T10:48:17.040Z,98741.00
2022-12-03T10:50:52.235Z,98736.00
2022-12-03T10:53:29.732Z,98731.00
2022-12-03T10:56:05.331Z,98732.00
2022-12-03T10:58:39.297Z,98719.00
2022-12-03T11:01:25.503Z,98717.00
2022-12-03T11:04:04.737Z,98710.00
2022-12-03T11:06:35.962Z,98700.00
2022-12-03T11:09:27.121Z,98702.00
2022-12-03T11:12:06.563Z,98699.00
2022-12-03T11:14:56.499Z,98691.00
2022-12-03T11:17:50.969Z,98704.00
2022-12-03T11:20:24.879Z,98704.00
2022-12-03T11:22:58.310Z,98699.00
2022-12-03T11:25:29.249Z,98694.00
2022-12-03T11:28:14.954Z,98690.00
2022-12-03T11:31:02.375Z,98687.00
2022-12-03T11:33:38.459Z,98692.00
2022-12-03T11:36:12.997Z,98684.00
2022-12-03T11:38:52.931Z,98694.00
2022-12-03T11:41:36.383Z,98697.00
2022-12-03T11:44:31.916Z,98685.00
2022-12-03T11:47:14.572Z,98691.00
2022-12-03T11:49:49.021Z,98680.00
2022-12-03T11:52:43.062Z,98673.00
2022-12-03T11:55:36.607Z,98672.00
2022-12-03T11:58:26.712Z,98667.00
2022-12-03T12:01:00.518Z,98656.00
2022-12-03T12:03:46.503Z,98658.00
2022-12-03T12:06:20.860Z,98663.00
2022-12-03T12:08:51.683Z,98660.00
2022-12-03T12:11:37.342Z,98658.00
2022-12-03T12:14:13.236Z,98653.00
2022-12-03T12:16:53.033Z,98648.00
2022-12-03T12:19:40.677Z,98649.00
2022-12-03T12:22:26.373Z,98647.00
2022-12-03T12:25:05.822Z,98631.00
2022-12-03T12:27:45.494Z,98644.00
2022-12-03T12:30:20.266Z,98639.00
2022-12-03T12:32:58.232Z,98640.00
2022-12-03T12:35:33.975Z,98631.00
2022-12-03T12:38:09.446Z,98640.00
2022-12-03T12:40:45.551Z,98640.00
2022-12-03T12:43:27.447Z,98635.00
2022-12-03T12:46:46.181Z,98622.00
2022-12-03T12:49:26.921Z,98617.00
2022-12-03T12:51:57.822Z,98620.00
2022-12-03T12:54:28.713Z,98617.00
2022-12-03T12:56:59.659Z,98620.00
2022-12-03T12:59:30.543Z,98614.00
2022-12-03T13:02:04.491Z,98601.00
2022-12-03T13:04:40.245Z,98603.00
2022-12-03T13:07:11.175Z,98599.00
2022-12-03T13:09:42.009Z,98598.00
2022-12-03T13:12:22.617Z,98606.00
2022-12-03T13:14:58.804Z,98600.00
2022-12-03T13:17:29.714Z,98598.00
2022-12-03T13:20:07.587Z,98591.00
2022-12-03T13:22:38.866Z,98589.00
2022-12-03T13:25:59.343Z,98597.00
2022-12-03T13:28:30.775Z,98619.00
2022-12-03T13:31:22.961Z,98603.00
2022-12-03T13:33:56.981Z,98592.00
2022-12-03T13:36:40.611Z,98599.00
2022-12-03T13:39:32.894Z,98603.00
2022-12-03T13:42:39.019Z,98596.00
2022-12-03T13:45:36.074Z,98598.00
2022-12-03T13:48:26.850Z,98594.00
2022-12-03T13:51:01.964Z,98601.00
2022-12-03T13:53:42.055Z,98596.00
2022-12-03T13:56:29.146Z,98593.00
2022-12-03T13:59:01.466Z,98604.00
2022-12-03T14:01:32.762Z,98600.00
2022-12-03T14:04:04.778Z,98590.00
2022-12-03T14:06:35.725Z,98598.00
2022-12-03T14:09:06.710Z,98594.00
2022-12-03T14:11:56.101Z,98591.00
2022-12-03T14:14:27.024Z,98587.00
2022-12-03T14:17:00.093Z,98589.00
2022-12-03T14:19:31.584Z,98587.00
2022-12-03T14:22:02.723Z,98586.00
2022-12-03T14:24:33.659Z,98585.00
2022-12-03T14:27:04.586Z,98583.00
2022-12-03T14:29:35.753Z,98592.00
2022-12-03T14:32:06.726Z,98599.00
2022-12-03T14:34:37.753Z,98596.00
2022-12-03T14:37:08.631Z,98595.00
2022-12-03T14:39:41.400Z,98598.00
2022-12-03T14:42:16.430Z,98597.00
2022-12-03T14:44:51.853Z,98607.00
2022-12-03T14:47:22.873Z,98605.00
2022-12-03T14:49:54.591Z,98614.00
2022-12-03T14:52:25.695Z,98613.00
2022-12-03T14:54:56.622Z,98624.00
2022-12-03T14:57:27.575Z,98617.00
2022-12-03T14:59:58.452Z,98619.00
2022-12-03T15:02:30.369Z,98621.00
2022-12-03T15:05:01.453Z,98616.00
2022-12-03T15:07:32.430Z,98612.00
2022-12-03T15:10:03.763Z,98609.00
2022-12-03T15:12:34.832Z,98604.00
2022-12-03T15:15:06.572Z,98611.00
2022-12-03T15:17:37.516Z,98605.00
2022-12-03T15:20:09.257Z,98610.00
2022-12-03T15:22:40.184Z,98601.00
2022-12-03T15:25:11.119Z,98608.00
2022-12-03T15:27:42.072Z,98604.00
2022-12-03T15:30:13.115Z,98620.00
2022-12-03T15:32:46.924Z,98609.00
2022-12-03T15:35:18.700Z,98608.00
2022-12-03T15:37:49.540Z,98603.00
2022-12-03T15:40:20.767Z,98609.00
2022-12-03T15:42:51.924Z,98615.00
2022-12-03T15:45:22.935Z,98611.00
2022-12-03T15:47:53.862Z,98604.00
2022-12-03T15:50:25.231Z,98618.00
2022-12-03T15:52:56.125Z,98606.00
2022-12-03T15:55:27.044Z,98609.00
2022-12-03T15:57:57.911Z,98609.00
2022-12-03T16:00:28.812Z,98604.00
2022-12-03T16:03:00.228Z,98605.00
2022-12-03T16:05:31.223Z,98608.00
2022-12-03T16:08:02.137Z,98609.00
2022-12-03T16:10:33.126Z,98603.00
2022-12-03T16:13:04.028Z,98601.00
2022-12-03T16:15:35.545Z,98603.00
2022-12-03T16:18:06.516Z,98595.00
2022-12-03T16:20:37.389Z,98598.00
2022-12-03T16:23:08.409Z,98605.00
2022-12-03T16:25:39.338Z,98604.00
2022-12-03T16:28:10.301Z,98608.00
2022-12-03T16:30:41.432Z,98613.00
2022-12-03T16:33:12.353Z,98610.00
2022-12-03T16:35:43.244Z,98609.00
2022-12-03T16:38:14.100Z,98599.00
2022-12-03T16:40:45.022Z,98597.00
2022-12-03T16:43:16.031Z,98610.00
2022-12-03T16:46:02.980Z,98604.00
2022-12-03T16:48:33.968Z,98604.00
2022-12-03T16:51:05.114Z,98616.00
2022-12-03T16:53:36.460Z,98616.00
2022-12-03T16:56:11.615Z,98614.00
2022-12-03T16:58:42.836Z,98607.00
2022-12-03T17:01:13.847Z,98608.00
2022-12-03T17:03:44.816Z,98602.00
2022-12-03T17:06:15.887Z,98602.00
2022-12-03T17:08:49.573Z,98597.00
2022-12-03T17:11:20.981Z,98591.00
2022-12-03T17:13:51.869Z,98589.00
2022-12-03T17:16:22.791Z,98585.00
2022-12-03T17:18:53.740Z,98591.00
2022-12-03T17:21:24.661Z,98572.00
2022-12-03T17:23:55.560Z,98568.00
2022-12-03T17:26:26.472Z,98566.00
2022-12-03T17:28:57.376Z,98574.00
2022-12-03T17:31:28.373Z,98571.00
2022-12-03T17:33:59.386Z,98568.00
2022-12-03T17:36:30.254Z,98566.00
2022-12-03T17:39:01.388Z,98569.00
2022-12-03T17:41:32.241Z,98573.00
2022-12-03T17:44:09.792Z,98577.00
2022-12-03T17:46:41.238Z,98578.00
2022-12-03T17:49:12.172Z,98574.00
2022-12-03T17:51:43.016Z,98581.00
2022-12-03T17:54:14.001Z,98573.00
2022-12-03T17:56:44.910Z,98579.00
2022-12-03T17:59:16.410Z,98582.00
2022-12-03T18:01:47.854Z,98577.00
2022-12-03T18:04:18.828Z,98573.00
2022-12-03T18:06:49.779Z,98574.00
2022-12-03T18:09:22.662Z,98565.00
2022-12-03T18:11:53.590Z,98568.00
2022-12-03T18:14:24.590Z,98565.00
2022-12-03T18:17:04.376Z,98559.00
2022-12-03T18:19:35.269Z,98561.00
2022-12-03T18:22:06.231Z,98569.00
2022-12-03T18:24:45.047Z,98565.00
2022-12-03T18:27:17.338Z,98557.00
2022-12-03T18:29:48.399Z,98561.00
2022-12-03T18:32:29.869Z,98557.00
2022-12-03T18:35:01.191Z,98547.00
2022-12-03T18:37:35.139Z,98551.00
2022-12-03T18:40:32.892Z,98554.00
2022-12-03T18:43:14.271Z,98558.00
2022-12-03T18:45:46.423Z,98552.00
2022-12-03T18:48:19.899Z,98551.00
2022-12-03T18:50:50.863Z,98545.00
2022-12-03T18:53:21.882Z,98550.00
2022-12-03T18:55:52.816Z,98553.00
2022-12-03T18:58:28.127Z,98552.00
2022-12-03T19:00:59.148Z,98544.00
2022-12-03T19:03:30.507Z,98550.00
2022-12-03T19:06:01.484Z,98540.00
2022-12-03T19:08:32.346Z,98541.00
2022-12-03T19:11:06.071Z,98550.00
2022-12-03T19:13:41.253Z,98550.00
2022-12-03T19:16:13.140Z,98554.00
2022-12-03T19:18:44.741Z,98544.00
2022-12-03T19:21:17.114Z,98535.00
2022-12-03T19:24:22.202Z,98551.00
2022-12-03T19:26:39.525Z,98546.00
2022-12-03T19:29:13.541Z,98546.00
2022-12-03T19:31:44.471Z,98544.00
2022-12-03T19:34:16.026Z,98543.00
2022-12-03T19:36:47.926Z,98537.00
2022-12-03T19:39:19.098Z,98542.00
2022-12-03T19:41:50.128Z,98544.00
2022-12-03T19:44:21.032Z,98538.00
2022-12-03T19:46:55.034Z,98541.00
2022-12-03T19:49:28.785Z,98540.00
2022-12-03T19:51:59.652Z,98536.00
2022-12-03T19:54:30.522Z,98538.00
2022-12-03T19:57:03.719Z,98539.00
2022-12-03T19:59:37.070Z,98541.00
2022-12-03T20:02:12.419Z,98540.00
2022-12-03T20:04:43.421Z,98536.00
2022-12-03T20:07:14.841Z,98541.00
2022-12-03T20:09:45.740Z,98544.00
2022-12-03T20:12:19.397Z,98544.00
2022-12-03T20:14:51.682Z,98546.00
2022-12-03T20:17:22.712Z,98546.00
2022-12-03T20:19:53.835Z,98538.00
2022-12-03T20:22:24.954Z,98530.00
2022-12-03T20:24:55.849Z,98531.00
2022-12-03T20:27:26.741Z,98534.00
2022-12-03T20:29:57.642Z,98541.00
2022-12-03T20:32:28.705Z,98537.00
2022-12-03T20:35:01.964Z,98539.00
2022-12-03T20:37:32.850Z,98526.00
2022-12-03T20:40:04.806Z,98537.00
2022-12-03T20:42:38.256Z,98518.00
2022-12-03T20:45:10.021Z,98523.00
2022-12-03T20:47:40.923Z,98524.00
2022-12-03T20:50:20.877Z,98516.00
2022-12-03T20:53:09.716Z,98519.00
2022-12-03T20:55:42.618Z,98505.00
2022-12-03T20:58:13.557Z,98536.00
2022-12-03T21:00:44.506Z,98507.00
2022-12-03T21:03:18.308Z,98509.00
2022-12-03T21:05:49.606Z,98506.00
2022-12-03T21:08:39.284Z,98502.00
2022-12-03T21:11:18.219Z,98501.00
2022-12-03T21:13:49.165Z,98503.00
2022-12-03T21:16:45.604Z,98506.00
2022-12-03T21:19:18.351Z,98502.00
2022-12-03T21:21:49.494Z,98507.00
2022-12-03T21:24:20.876Z,98502.00
2022-12-03T21:26:51.852Z,98503.00
2022-12-03T21:29:23.239Z,98498.00
2022-12-03T21:31:54.197Z,98505.00
2022-12-03T21:34:25.232Z,98486.00
2022-12-03T21:36:56.205Z,98494.00
2022-12-03T21:39:30.027Z,98516.00
2022-12-03T21:42:34.289Z,98491.00
2022-12-03T21:45:00.851Z,98497.00
2022-12-03T21:47:36.879Z,98494.00
2022-12-03T21:50:11.580Z,98496.00
2022-12-03T21:52:42.654Z,98503.00
2022-12-03T21:55:13.537Z,98499.00
2022-12-03T21:57:44.455Z,98476.00
2022-12-03T22:00:15.859Z,98484.00
2022-12-03T22:02:46.808Z,98482.00
2022-12-03T22:05:17.972Z,98477.00
2022-12-03T22:07:49.215Z,98484.00
2022-12-03T22:10:20.322Z,98483.00
2022-12-03T22:12:54.000Z,98498.00
2022-12-03T22:15:24.974Z,98481.00
2022-12-03T22:17:55.843Z,98487.00
2022-12-03T22:20:27.414Z,98477.00
2022-12-03T22:22:58.272Z,98476.00
2022-12-03T22:25:36.445Z,98479.00
2022-12-03T22:28:07.300Z,98472.00
2022-12-03T22:30:40.303Z,98474.00
2022-12-03T22:33:11.208Z,98477.00
2022-12-03T22:36:02.555Z,98487.00
2022-12-03T22:38:36.301Z,98464.00
2022-12-03T22:41:12.629Z,98484.00
2022-12-03T22:43:43.863Z,98471.00
2022-12-03T22:46:15.772Z,98476.00
2022-12-03T22:48:47.283Z,98468.00
2022-12-03T22:51:24.335Z,98464.00
2022-12-03T22:53:57.589Z,98460.00
2022-12-03T22:56:30.531Z,98458.00
2022-12-03T22:59:01.730Z,98456.00
2022-12-03T23:01:36.729Z,98444.00
2022-12-03T23:04:11.344Z,98445.00
2022-12-03T23:06:43.565Z,98441.00
2022-12-03T23:09:14.697Z,98455.00
2022-12-03T23:11:46.277Z,98438.00
2022-12-03T23:14:17.154Z,98435.00
2022-12-03T23:16:48.059Z,98444.00
2022-12-03T23:19:19.952Z,98442.00
2022-12-03T23:21:50.797Z,98441.00
2022-12-03T23:24:21.676Z,98438.00
2022-12-03T23:26:52.574Z,98420.00
2022-12-03T23:29:23.442Z,98429.00
2022-12-03T23:31:54.308Z,98436.00
2022-12-03T23:34:25.630Z,98441.00
2022-12-03T23:36:56.488Z,98442.00
2022-12-03T23:39:27.357Z,98432.00
2022-12-03T23:41:58.241Z,98424.00
2022-12-03T23:44:29.287Z,98432.00
2022-12-03T23:47:01.028Z,98430.00
2022-12-03T23:49:32.144Z,98429.00
2022-12-03T23:52:06.162Z,98435.00
2022-12-03T23:54:37.955Z,98442.00
2022-12-03T23:57:08.812Z,98434.00
2022-12-03T23:59:42.061Z,98429.00
